Time;durP1;ratioP1;P1;durP2;ratioP2;P2;SDS_P1;SDS_P2;PMS_P1;PMS_P2;Temp;Humidity;BMP_temperature;BMP_pressure;BME280_temperature;BME280_humidity;BME280_pressure;Samples;Min_cycle;Max_cycle;Signal;HPM_P1;HPM_P2
2021/01/15 00:02:28;;;;;;;30.13;16.58;;;-0.40;99.90;;;;;;12320210;28;20134;-81
2021/01/15 00:08:29;;;;;;;33.10;17.38;;;-0.40;99.90;;;;;;12331811;28;20054;-81
2021/01/15 00:14:30;;;;;;;30.20;15.98;;;-0.30;99.90;;;;;;12331847;28;20051;-81
2021/01/15 00:20:32;;;;;;;27.98;15.90;;;0.00;99.90;;;;;;12326435;28;20512;-81
2021/01/15 00:26:34;;;;;;;28.15;17.30;;;0.00;99.90;;;;;;12333029;28;20070;-81
2021/01/15 00:32:37;;;;;;;26.85;16.52;;;0.10;99.90;;;;;;12328642;28;20053;-80
2021/01/15 00:38:39;;;;;;;29.00;17.33;;;0.00;99.90;;;;;;12328903;28;20046;-81
2021/01/15 00:44:45;;;;;;;32.45;17.45;;;0.10;99.90;;;;;;12328393;28;22005;-81
2021/01/15 00:50:47;;;;;;;31.35;18.10;;;0.10;99.90;;;;;;12317583;28;21069;-81
2021/01/15 00:56:48;;;;;;;34.10;17.60;;;0.20;99.90;;;;;;12317822;28;20475;-81
2021/01/15 01:02:49;;;;;;;35.50;19.27;;;0.20;99.90;;;;;;12325008;28;20420;-82
2021/01/15 01:08:51;;;;;;;37.97;19.50;;;0.20;99.90;;;;;;12315824;28;22016;-81
2021/01/15 01:14:52;;;;;;;35.28;19.60;;;0.30;99.90;;;;;;12323666;28;20133;-81
2021/01/15 01:20:53;;;;;;;34.28;19.13;;;0.30;99.90;;;;;;12329463;28;20174;-81
2021/01/15 01:26:55;;;;;;;38.35;19.60;;;0.30;99.90;;;;;;12331880;28;20134;-81
2021/01/15 01:32:57;;;;;;;31.90;18.60;;;0.30;99.90;;;;;;12325584;28;20129;-81
2021/01/15 01:38:58;;;;;;;37.80;19.70;;;0.20;99.90;;;;;;12305956;28;20475;-81
2021/01/15 01:45:00;;;;;;;32.50;18.55;;;0.10;99.90;;;;;;12300972;28;20541;-82
2021/01/15 01:51:03;;;;;;;36.55;19.83;;;0.10;99.90;;;;;;12283346;28;20049;-81
2021/01/15 01:57:06;;;;;;;31.38;17.80;;;0.10;99.90;;;;;;12289581;28;20076;-82
2021/01/15 02:03:08;;;;;;;35.63;19.27;;;0.20;99.90;;;;;;12303631;28;20046;-81
2021/01/15 02:09:09;;;;;;;36.63;19.58;;;0.10;99.90;;;;;;12347092;28;20061;-82
2021/01/15 02:15:30;;;;;;;37.65;19.83;;;0.10;99.90;;;;;;12318259;28;20426;-82
2021/01/15 02:21:46;;;;;;;33.60;18.58;;;0.20;99.90;;;;;;12323122;28;20507;-80
2021/01/15 02:28:09;;;;;;;33.70;17.90;;;0.30;99.90;;;;;;12369138;28;20073;-81
2021/01/15 02:34:39;;;;;;;34.88;19.23;;;0.30;99.90;;;;;;12383234;28;20145;-82
2021/01/15 02:41:12;;;;;;;38.17;20.80;;;0.30;99.90;;;;;;12365885;28;20777;-82
2021/01/15 02:47:24;;;;;;;34.67;18.80;;;0.40;99.90;;;;;;12360228;28;20042;-81
2021/01/15 02:53:26;;;;;;;35.63;19.73;;;0.30;99.90;;;;;;12369299;28;20049;-81
2021/01/15 02:59:27;;;;;;;36.95;19.65;;;0.30;99.90;;;;;;12371540;28;20062;-81
2021/01/15 03:05:43;;;;;;;37.33;20.45;;;0.20;99.90;;;;;;12345466;28;20065;-81
2021/01/15 03:11:46;;;;;;;33.92;18.02;;;0.30;99.90;;;;;;12342406;28;20042;-81
2021/01/15 03:17:50;;;;;;;34.35;19.65;;;0.30;99.90;;;;;;12364326;28;20162;-81
2021/01/15 03:23:52;;;;;;;32.27;18.07;;;0.30;99.90;;;;;;12361062;28;20038;-81
2021/01/15 03:29:53;;;;;;;34.35;19.98;;;0.30;99.90;;;;;;12361787;28;20054;-81
2021/01/15 03:35:54;;;;;;;38.20;20.17;;;0.30;99.90;;;;;;12361199;28;20087;-80
2021/01/15 03:41:55;;;;;;;40.72;20.67;;;0.30;99.90;;;;;;12379704;28;20449;-81
2021/01/15 03:47:57;;;;;;;34.83;18.70;;;0.30;99.90;;;;;;12354108;28;20054;-81
2021/01/15 03:53:59;;;;;;;36.08;20.33;;;0.30;99.90;;;;;;12341899;28;20050;-82
2021/01/15 04:00:02;;;;;;;34.28;19.80;;;0.40;99.90;;;;;;12295022;28;20050;-82
2021/01/15 04:06:03;;;;;;;36.65;19.42;;;0.30;99.90;;;;;;12308167;28;20749;-80
2021/01/15 04:12:05;;;;;;;33.25;18.00;;;0.40;99.90;;;;;;12298324;28;20078;-81
2021/01/15 04:18:06;;;;;;;31.90;17.58;;;0.30;99.90;;;;;;12286702;28;20064;-80
2021/01/15 04:24:08;;;;;;;35.38;19.63;;;0.30;99.90;;;;;;12333803;28;20137;-80
2021/01/15 04:30:12;;;;;;;29.90;17.65;;;0.30;99.90;;;;;;12352062;28;20125;-81
2021/01/15 04:36:13;;;;;;;31.95;17.98;;;0.30;99.90;;;;;;12353538;28;20046;-81
2021/01/15 04:42:16;;;;;;;28.48;17.40;;;0.30;99.90;;;;;;12369255;28;20107;-80
2021/01/15 04:48:20;;;;;;;31.67;17.42;;;0.30;99.90;;;;;;12336521;28;20157;-81
2021/01/15 04:54:35;;;;;;;34.10;18.60;;;0.30;99.90;;;;;;12366879;28;20131;-81
2021/01/15 05:00:36;;;;;;;28.40;16.73;;;0.30;99.90;;;;;;12367809;28;20050;-82
2021/01/15 05:06:51;;;;;;;35.58;16.98;;;0.30;99.90;;;;;;12384259;28;20304;-81
2021/01/15 05:12:55;;;;;;;33.45;17.88;;;0.30;99.90;;;;;;12388673;28;20042;-81
2021/01/15 05:18:59;;;;;;;32.95;17.17;;;0.30;99.90;;;;;;12358728;28;20230;-82
2021/01/15 05:25:01;;;;;;;30.92;17.67;;;0.20;99.90;;;;;;12361720;28;20042;-80
2021/01/15 05:31:02;;;;;;;27.13;16.60;;;0.30;99.90;;;;;;12361975;28;20137;-80
2021/01/15 05:37:07;;;;;;;28.60;16.83;;;0.20;99.90;;;;;;12360348;28;20061;-80
2021/01/15 05:43:27;;;;;;;;;;;0.30;99.90;;;;;;12372298;28;20608;-81
2021/01/15 05:49:29;;;;;;;;;;;0.20;99.90;;;;;;12344955;28;19975;-81
2021/01/15 05:55:30;;;;;;;;;;;0.30;99.90;;;;;;12367123;28;19925;-81
2021/01/15 06:01:37;;;;;;;;;;;0.30;99.90;;;;;;12372931;28;19989;-82
2021/01/15 06:07:38;;;;;;;;;;;0.70;99.90;;;;;;12363620;28;19921;-81
2021/01/15 06:13:40;;;;;;;;;;;0.80;99.90;;;;;;12358955;28;20560;-82
2021/01/15 06:19:48;;;;;;;;;;;0.80;99.90;;;;;;12368897;28;20020;-80
2021/01/15 06:25:56;;;;;;;;;;;0.50;99.90;;;;;;12376743;28;19961;-81
2021/01/15 06:32:00;;;;;;;;;;;0.70;99.90;;;;;;12372973;28;20258;-81
2021/01/15 06:38:03;;;;;;;;;;;0.70;99.90;;;;;;12381667;28;19932;-81
2021/01/15 06:44:08;;;;;;;;;;;0.50;99.90;;;;;;12367412;28;19973;-80
2021/01/15 06:50:13;;;;;;;;;;;0.60;99.90;;;;;;12352909;28;20035;-81
2021/01/15 06:56:17;;;;;;;;;;;0.70;99.90;;;;;;12371655;28;20227;-80
2021/01/15 07:02:18;;;;;;;;;;;0.60;99.90;;;;;;12380160;28;20016;-80
2021/01/15 07:08:22;;;;;;;;;;;0.70;99.90;;;;;;12378691;28;20051;-80
2021/01/15 07:14:27;;;;;;;;;;;0.50;99.90;;;;;;12352141;28;20004;-81
2021/01/15 07:20:32;;;;;;;;;;;0.60;99.90;;;;;;12371859;28;20338;-81
2021/01/15 07:26:40;;;;;;;;;;;0.40;99.90;;;;;;12368237;28;19961;-79
2021/01/15 07:32:42;;;;;;;;;;;0.40;99.90;;;;;;12394370;28;20043;-81
2021/01/15 07:39:02;;;;;;;;;;;0.20;99.90;;;;;;12389758;28;20029;-81
2021/01/15 07:45:04;;;;;;;;;;;0.10;99.90;;;;;;12366819;28;19961;-79
2021/01/15 07:51:12;;;;;;;;;;;0.10;99.90;;;;;;12359329;28;20354;-79
2021/01/15 07:57:14;;;;;;;;;;;0.30;99.90;;;;;;12397194;28;20021;-80
2021/01/15 08:03:15;;;;;;;;;;;0.30;99.90;;;;;;12358117;28;19965;-80
2021/01/15 08:09:17;;;;;;;;;;;0.40;99.90;;;;;;12378519;28;19933;-80
2021/01/15 08:15:28;;;;;;;;;;;0.50;99.90;;;;;;12385038;28;19949;-80
2021/01/15 08:21:29;;;;;;;;;;;0.50;99.90;;;;;;12348075;28;20748;-80
2021/01/15 08:27:33;;;;;;;;;;;0.60;99.90;;;;;;12359076;28;20060;-80
2021/01/15 08:33:35;;;;;;;;;;;0.80;99.90;;;;;;12357586;28;19921;-81
2021/01/15 08:39:49;;;;;;;;;;;0.80;99.90;;;;;;12380206;28;20031;-81
2021/01/15 08:45:50;;;;;;;;;;;0.90;99.90;;;;;;12364041;28;19968;-80
2021/01/15 08:51:53;;;;;;;;;;;0.90;99.90;;;;;;12351217;28;19937;-80
2021/01/15 08:57:54;;;;;;;;;;;0.90;99.90;;;;;;12360656;28;19929;-80
2021/01/15 09:04:06;;;;;;;;;;;0.90;99.90;;;;;;12358154;28;20016;-80
2021/01/15 09:10:08;;;;;;;;;;;0.90;99.90;;;;;;12378585;28;20461;-81
2021/01/15 09:16:16;;;;;;;;;;;0.90;99.90;;;;;;12374509;28;20452;-80
2021/01/15 09:22:17;;;;;;;;;;;1.00;99.90;;;;;;12364631;28;20312;-80
2021/01/15 09:28:19;;;;;;;;;;;1.20;99.90;;;;;;12376849;28;19925;-81
2021/01/15 09:34:21;;;;;;;;;;;1.00;99.90;;;;;;12372286;28;20068;-79
2021/01/15 09:40:22;;;;;;;;;;;1.10;99.90;;;;;;12374479;28;19957;-80
2021/01/15 09:46:23;;;;;;;;;;;1.10;99.90;;;;;;12386296;28;19971;-81
2021/01/15 09:52:25;;;;;;;;;;;1.20;99.90;;;;;;12383028;28;19928;-81
2021/01/15 09:58:27;;;;;;;;;;;1.10;99.90;;;;;;12338694;28;19921;-80
2021/01/15 10:04:28;;;;;;;;;;;1.10;99.90;;;;;;12403190;28;19925;-81
2021/01/15 10:10:29;;;;;;;;;;;1.10;99.90;;;;;;12387635;28;20009;-80
2021/01/15 10:16:31;;;;;;;;;;;1.10;99.90;;;;;;12352868;28;20456;-82
2021/01/15 10:22:32;;;;;;;;;;;1.10;99.90;;;;;;12384949;28;19929;-81
2021/01/15 10:28:34;;;;;;;;;;;1.10;99.90;;;;;;12379877;28;19968;-80
2021/01/15 10:34:35;;;;;;;;;;;1.20;99.90;;;;;;12359523;28;20350;-80
2021/01/15 10:40:36;;;;;;;;;;;1.30;99.90;;;;;;12386748;28;20001;-81
2021/01/15 10:46:39;;;;;;;;;;;1.20;99.90;;;;;;12350527;28;20000;-81
2021/01/15 10:52:40;;;;;;;;;;;1.30;99.90;;;;;;12363475;28;19941;-80
2021/01/15 10:58:42;;;;;;;;;;;1.40;99.90;;;;;;12394214;28;20392;-80
2021/01/15 11:04:43;;;;;;;;;;;1.50;99.90;;;;;;12375005;28;19965;-80
2021/01/15 11:10:45;;;;;;;;;;;1.50;99.90;;;;;;12367493;28;19933;-81
2021/01/15 11:16:46;;;;;;;;;;;1.50;99.90;;;;;;12391087;28;20412;-82
2021/01/15 11:22:48;;;;;;;;;;;1.50;99.90;;;;;;12388228;28;20016;-81
2021/01/15 11:28:53;;;;;;;;;;;1.60;99.90;;;;;;12391149;28;19933;-81
2021/01/15 11:34:55;;;;;;;;;;;1.60;99.90;;;;;;12383393;28;19926;-80
2021/01/15 11:40:56;;;;;;;;;;;1.50;99.90;;;;;;12387744;28;19944;-80
2021/01/15 11:46:58;;;;;;;;;;;1.50;99.90;;;;;;12355802;28;19960;-81
2021/01/15 11:53:04;;;;;;;;;;;1.50;99.90;;;;;;12361186;28;19928;-80
2021/01/15 11:59:05;;;;;;;;;;;1.50;99.90;;;;;;12369761;28;20342;-81
2021/01/15 12:05:07;;;;;;;;;;;1.60;99.90;;;;;;12318063;28;19926;-81
2021/01/15 12:11:08;;;;;;;;;;;1.70;99.90;;;;;;12308544;28;22229;-80
2021/01/15 12:17:09;;;;;;;;;;;1.60;99.90;;;;;;12293937;28;19921;-80
2021/01/15 12:23:14;;;;;;;;;;;1.70;99.90;;;;;;12249464;28;19958;-82
2021/01/15 12:29:15;;;;;;;;;;;1.60;99.90;;;;;;12280154;28;20016;-82
2021/01/15 12:35:20;;;;;;;;;;;1.50;99.90;;;;;;12264894;28;20160;-80
2021/01/15 12:41:21;;;;;;;;;;;1.50;99.90;;;;;;12277377;28;19929;-80
2021/01/15 12:47:22;;;;;;;;;;;1.50;99.90;;;;;;12282986;28;20025;-82
2021/01/15 12:53:24;;;;;;;;;;;1.40;99.90;;;;;;12285024;28;20422;-81
2021/01/15 12:59:25;;;;;;;;;;;1.30;99.90;;;;;;12291423;28;20005;-82
2021/01/15 13:05:26;;;;;;;;;;;1.40;99.90;;;;;;12278211;28;19957;-81
2021/01/15 13:11:27;;;;;;;;;;;1.30;99.90;;;;;;12285610;28;20017;-81
2021/01/15 13:17:45;;;;;;;;;;;1.30;99.90;;;;;;12265416;28;20051;-81
2021/01/15 13:23:47;;;;;;;;;;;1.30;99.90;;;;;;12275378;28;19926;-81
2021/01/15 13:29:48;;;;;;;;;;;1.40;99.90;;;;;;12285810;28;20552;-80
2021/01/15 13:36:09;;;;;;;;;;;1.40;99.90;;;;;;12282054;28;20046;-82
2021/01/15 13:42:11;;;;;;;;;;;1.30;99.90;;;;;;12289352;28;19923;-80
2021/01/15 13:48:12;;;;;;;;;;;1.20;99.90;;;;;;12299432;28;20367;-82
2021/01/15 13:54:13;;;;;;;;;;;1.10;99.90;;;;;;12283207;28;20461;-80
2021/01/15 14:00:15;;;;;;;;;;;1.20;99.90;;;;;;12276946;28;19946;-81
2021/01/15 14:06:16;;;;;;;;;;;1.00;99.90;;;;;;12312889;28;19973;-82
2021/01/15 14:12:17;;;;;;;;;;;0.90;99.90;;;;;;12276348;28;19985;-80
2021/01/15 14:18:18;;;;;;;;;;;0.70;99.90;;;;;;12293188;28;19961;-80
2021/01/15 14:24:20;;;;;;;;;;;0.60;99.90;;;;;;12294419;28;19926;-81
2021/01/15 14:30:22;;;;;;;;;;;0.60;99.90;;;;;;12279481;28;20009;-79
2021/01/15 14:36:23;;;;;;;;;;;0.50;99.90;;;;;;12294760;28;19938;-80
2021/01/15 14:42:25;;;;;;;;;;;0.60;99.90;;;;;;12272786;28;19964;-80
2021/01/15 14:48:26;;;;;;;;;;;0.60;99.90;;;;;;12268274;28;20458;-81
2021/01/15 14:54:28;;;;;;;;;;;0.60;99.90;;;;;;12289457;28;20048;-79
2021/01/15 15:00:44;;;;;;;;;;;0.50;99.90;;;;;;12297451;28;20353;-79
2021/01/15 15:06:46;;;;;;;;;;;0.50;99.90;;;;;;12312718;28;19926;-79
2021/01/15 15:12:48;;;;;;;;;;;0.60;99.90;;;;;;12267623;28;19922;-80
2021/01/15 15:18:52;;;;;;;;;;;0.60;99.90;;;;;;12286751;28;19937;-79
2021/01/15 15:24:54;;;;;;;;;;;0.50;99.90;;;;;;12284304;28;19969;-79
2021/01/15 15:30:56;;;;;;;;;;;0.40;99.90;;;;;;12297130;28;19926;-79
2021/01/15 15:36:57;;;;;;;;;;;0.30;99.90;;;;;;12275714;28;19933;-79
2021/01/15 15:42:58;;;;;;;;;;;0.30;99.90;;;;;;12267244;28;20012;-81
2021/01/15 15:48:59;;;;;;;;;;;0.30;99.90;;;;;;12276329;28;20021;-81
2021/01/15 15:55:01;;;;;;;;;;;0.10;99.90;;;;;;12299406;28;19957;-79
2021/01/15 16:01:03;;;;;;;;;;;0.10;99.90;;;;;;12289281;28;20017;-79
2021/01/15 16:07:04;;;;;;;;;;;0.00;99.90;;;;;;12290957;28;19921;-79
2021/01/15 16:13:09;;;;;;;;;;;-0.10;99.90;;;;;;12301970;28;19950;-80
2021/01/15 16:19:10;;;;;;;;;;;-0.10;99.90;;;;;;12272991;28;19928;-80
2021/01/15 16:25:13;;;;;;;;;;;-0.20;99.90;;;;;;12296212;28;19968;-80
2021/01/15 16:31:14;;;;;;;;;;;-0.40;99.90;;;;;;12282602;28;19982;-81
2021/01/15 16:37:17;;;;;;;;;;;-0.40;99.90;;;;;;12289414;28;19926;-79
2021/01/15 16:43:19;;;;;;;;;;;-0.40;99.90;;;;;;12291784;28;20358;-81
2021/01/15 16:49:21;;;;;;;;;;;-0.40;99.90;;;;;;12268515;28;19961;-81
2021/01/15 16:55:22;;;;;;;;;;;-0.30;99.90;;;;;;12300837;28;20475;-81
2021/01/15 17:01:23;;;;;;;;;;;-0.30;99.90;;;;;;12284612;28;20013;-81
2021/01/15 17:07:25;;;;;;;;;;;-0.20;99.90;;;;;;12305880;28;19922;-81
2021/01/15 17:13:29;;;;;;;;;;;-0.10;99.90;;;;;;12289471;28;19983;-80
2021/01/15 17:19:31;;;;;;;;;;;-0.10;99.90;;;;;;12289595;28;19985;-81
2021/01/15 17:25:32;;;;;;;;;;;-0.10;99.90;;;;;;12297548;28;20017;-80
2021/01/15 17:31:43;;;;;;;;;;;-0.10;99.90;;;;;;12284956;28;20009;-82
2021/01/15 17:37:45;;;;;;;;;;;0.00;99.90;;;;;;12279701;28;19926;-80
2021/01/15 17:43:47;;;;;;;;;;;0.00;99.90;;;;;;12281525;28;20061;-81
2021/01/15 17:49:48;;;;;;;;;;;-0.10;99.90;;;;;;12291139;28;20375;-80
2021/01/15 17:55:49;;;;;;;;;;;0.00;99.90;;;;;;12306123;28;20389;-82
2021/01/15 18:01:50;;;;;;;;;;;0.00;99.90;;;;;;12292572;28;19931;-80
2021/01/15 18:07:52;;;;;;;;;;;0.00;99.90;;;;;;12288890;28;19929;-80
2021/01/15 18:13:53;;;;;;;;;;;0.00;99.90;;;;;;12290051;28;20001;-80
2021/01/15 18:19:54;;;;;;;;;;;-0.10;99.90;;;;;;12248069;28;19937;-80
2021/01/15 18:25:56;;;;;;;;;;;-0.10;99.90;;;;;;12278759;28;19961;-81
2021/01/15 18:31:57;;;;;;;;;;;-0.20;99.90;;;;;;12265333;28;20060;-80
2021/01/15 18:37:59;;;;;;;;;;;-0.40;99.90;;;;;;12290658;28;20025;-80
2021/01/15 18:44:00;;;;;;;;;;;-0.40;99.90;;;;;;12307941;28;20008;-80
2021/01/15 18:50:01;;;;;;;;;;;-0.30;99.90;;;;;;12307197;28;19930;-79
2021/01/15 18:56:02;;;;;;;;;;;-0.30;99.90;;;;;;12270337;28;20158;-81
2021/01/15 19:02:04;;;;;;;;;;;-0.20;99.90;;;;;;12302572;28;19953;-80
2021/01/15 19:08:06;;;;;;;;;;;-0.40;99.90;;;;;;12288140;28;19933;-81
2021/01/15 19:14:07;;;;;;;;;;;-0.40;99.90;;;;;;12295154;28;19926;-80
2021/01/15 19:20:10;;;;;;;;;;;-0.40;99.90;;;;;;12296754;28;20703;-81
2021/01/15 19:26:11;;;;;;;;;;;-0.50;99.90;;;;;;12285815;28;20017;-80
2021/01/15 19:32:13;;;;;;;;;;;-0.30;99.90;;;;;;12292970;28;19930;-79
2021/01/15 19:38:15;;;;;;;;;;;-0.40;99.90;;;;;;12269562;28;19966;-82
2021/01/15 19:44:16;;;;;;;;;;;-0.40;99.90;;;;;;12272643;28;19926;-79
2021/01/15 19:50:18;;;;;;;;;;;-0.30;99.90;;;;;;12281728;28;20857;-80
2021/01/15 19:56:19;;;;;;;;;;;-0.30;99.90;;;;;;12303686;28;19933;-80
2021/01/15 20:02:20;;;;;;;;;;;-0.40;99.90;;;;;;12291489;28;19930;-81
2021/01/15 20:08:21;;;;;;;;;;;-0.60;99.90;;;;;;12319067;28;20045;-80
2021/01/15 20:14:23;;;;;;;;;;;-0.40;99.90;;;;;;12305547;28;20025;-81
2021/01/15 20:20:25;;;;;;;;;;;-0.50;99.90;;;;;;12294390;28;19933;-79
2021/01/15 20:26:27;;;;;;;;;;;-0.50;99.90;;;;;;12290009;28;20004;-80
2021/01/15 20:32:31;;;;;;;;;;;-0.30;99.90;;;;;;12306293;28;19965;-81
2021/01/15 20:38:33;;;;;;;;;;;-0.30;99.90;;;;;;12299538;28;19934;-80
2021/01/15 20:44:34;;;;;;;;;;;-0.50;99.90;;;;;;12311318;28;19923;-79
2021/01/15 20:50:35;;;;;;;;;;;-0.50;99.90;;;;;;12294077;28;19926;-80
2021/01/15 20:56:37;;;;;;;;;;;-0.60;99.90;;;;;;12303665;28;20013;-79
2021/01/15 21:02:38;;;;;;;;;;;-0.40;99.90;;;;;;12291003;28;19972;-79
2021/01/15 21:08:40;;;;;;;;;;;-0.10;99.90;;;;;;12299321;28;19926;-79
2021/01/15 21:14:41;;;;;;;;;;;-0.10;99.90;;;;;;12298467;28;19979;-79
2021/01/15 21:20:43;;;;;;;;;;;0.00;99.90;;;;;;12272007;28;20364;-79
2021/01/15 21:26:44;;;;;;;;;;;-0.10;99.90;;;;;;12284593;28;19930;-79
2021/01/15 21:32:46;;;;;;;;;;;-0.30;99.90;;;;;;12269632;28;20047;-79
2021/01/15 21:38:48;;;;;;;;;;;-0.30;99.90;;;;;;12289039;28;19933;-81
2021/01/15 21:44:49;;;;;;;;;;;-0.30;99.90;;;;;;12265257;28;19961;-79
2021/01/15 21:50:50;;;;;;;;;;;-0.40;99.90;;;;;;12294135;28;20414;-79
2021/01/15 21:56:52;;;;;;;;;;;-0.30;99.90;;;;;;12306544;28;19990;-80
2021/01/15 22:02:54;;;;;;;;;;;-0.20;99.90;;;;;;12261615;28;19941;-81
2021/01/15 22:08:55;;;;;;;;;;;-0.20;99.90;;;;;;12299065;28;19929;-79
2021/01/15 22:14:57;;;;;;;;;;;-0.40;99.90;;;;;;12272156;28;20398;-79
2021/01/15 22:20:58;;;;;;;;;;;-0.40;99.90;;;;;;12263910;28;19966;-79
2021/01/15 22:26:59;;;;;;;;;;;-0.40;99.90;;;;;;12279102;28;20005;-79
2021/01/15 22:33:01;;;;;;;;;;;-0.30;99.90;;;;;;12275133;28;20366;-79
2021/01/15 22:39:02;;;;;;;;;;;-0.30;99.90;;;;;;12271338;28;19926;-79
2021/01/15 22:45:04;;;;;;;;;;;-0.30;99.90;;;;;;12278326;28;19927;-79
2021/01/15 22:51:06;;;;;;;;;;;-0.40;99.90;;;;;;12250024;28;20025;-80
2021/01/15 22:57:08;;;;;;;;;;;-0.30;99.90;;;;;;12296170;28;20247;-80
2021/01/15 23:03:09;;;;;;;;;;;-0.40;99.90;;;;;;12289736;28;19989;-80
2021/01/15 23:09:10;;;;;;;;;;;-0.30;99.90;;;;;;12280916;28;19966;-80
2021/01/15 23:15:12;;;;;;;;;;;-0.30;99.90;;;;;;12297418;28;20012;-79
2021/01/15 23:21:13;;;;;;;;;;;-0.20;99.90;;;;;;12274267;28;19965;-79
2021/01/15 23:27:14;;;;;;;;;;;-0.10;99.90;;;;;;12289743;28;20359;-80
2021/01/15 23:33:17;;;;;;;;;;;-0.30;99.90;;;;;;12292292;28;19922;-79
2021/01/15 23:39:18;;;;;;;;;;;-0.10;99.90;;;;;;12293082;28;19925;-80
2021/01/15 23:45:20;;;;;;;;;;;-0.20;99.90;;;;;;12277426;28;21584;-80
2021/01/15 23:51:21;;;;;;;;;;;-0.30;99.90;;;;;;12293664;28;19934;-79
2021/01/15 23:57:22;;;;;;;;;;;-0.30;99.90;;;;;;12300059;28;20337;-81
